sensor_id;sensor_type;location;lat;lon;timestamp;pressure;altitude;pressure_sealevel;temperature;humidity
58843;BME280;44614;54.356;10.100;2023-04-08T00:00:56;102268.94;;;4.79;100.00
58843;BME280;44614;54.356;10.100;2023-04-08T00:03:21;102264.66;;;4.77;100.00
58843;BME280;44614;54.356;10.100;2023-04-08T00:05:47;102255.25;;;4.71;100.00
58843;BME280;44614;54.356;10.100;2023-04-08T00:08:12;102264.97;;;4.74;100.00
58843;BME280;44614;54.356;10.100;2023-04-08T00:10:37;102267.94;;;4.80;100.00
58843;BME280;44614;54.356;10.100;2023-04-08T00:13:03;102277.13;;;4.79;100.00
58843;BME280;44614;54.356;10.100;2023-04-08T00:15:28;102273.53;;;4.79;100.00
58843;BME280;44614;54.356;10.100;2023-04-08T00:17:53;102279.72;;;4.81;100.00
58843;BME280;44614;54.356;10.100;2023-04-08T00:20:20;102278.13;;;4.78;100.00
58843;BME280;44614;54.356;10.100;2023-04-08T00:22:45;102265.56;;;4.68;100.00
58843;BME280;44614;54.356;10.100;2023-04-08T00:25:11;102252.53;;;4.61;100.00
58843;BME280;44614;54.356;10.100;2023-04-08T00:27:36;102282.72;;;4.78;100.00
58843;BME280;44614;54.356;10.100;2023-04-08T00:30:02;102277.88;;;4.72;100.00
58843;BME280;44614;54.356;10.100;2023-04-08T00:32:27;102280.97;;;4.77;100.00
58843;BME280;44614;54.356;10.100;2023-04-08T00:34:53;102285.34;;;4.70;100.00
58843;BME280;44614;54.356;10.100;2023-04-08T00:37:18;102299.06;;;4.78;100.00
58843;BME280;44614;54.356;10.100;2023-04-08T00:39:45;102288.16;;;4.78;100.00
58843;BME280;44614;54.356;10.100;2023-04-08T00:42:10;102294.31;;;4.80;100.00
58843;BME280;44614;54.356;10.100;2023-04-08T00:44:36;102292.59;;;4.79;100.00
58843;BME280;44614;54.356;10.100;2023-04-08T00:47:02;102301.47;;;4.81;100.00
58843;BME280;44614;54.356;10.100;2023-04-08T00:49:30;102288.56;;;4.83;100.00
58843;BME280;44614;54.356;10.100;2023-04-08T00:51:55;102294.72;;;4.85;100.00
58843;BME280;44614;54.356;10.100;2023-04-08T00:54:21;102292.69;;;4.87;100.00
58843;BME280;44614;54.356;10.100;2023-04-08T00:56:46;102291.00;;;4.86;100.00
58843;BME280;44614;54.356;10.100;2023-04-08T00:59:12;102288.97;;;4.88;100.00
58843;BME280;44614;54.356;10.100;2023-04-08T01:04:52;102298.00;;;4.88;100.00
58843;BME280;44614;54.356;10.100;2023-04-08T01:07:29;102289.97;;;4.87;100.00
58843;BME280;44614;54.356;10.100;2023-04-08T01:09:56;102294.41;;;4.88;100.00
58843;BME280;44614;54.356;10.100;2023-04-08T01:12:28;102295.97;;;4.91;100.00
58843;BME280;44614;54.356;10.100;2023-04-08T01:14:59;102282.09;;;4.84;100.00
58843;BME280;44614;54.356;10.100;2023-04-08T01:17:28;102294.09;;;4.91;100.00
58843;BME280;44614;54.356;10.100;2023-04-08T01:19:55;102288.81;;;4.89;100.00
58843;BME280;44614;54.356;10.100;2023-04-08T01:25:04;102294.84;;;4.83;100.00
58843;BME280;44614;54.356;10.100;2023-04-08T01:27:30;102288.66;;;4.91;100.00
58843;BME280;44614;54.356;10.100;2023-04-08T01:29:58;102295.81;;;4.92;100.00
58843;BME280;44614;54.356;10.100;2023-04-08T01:32:25;102295.81;;;4.92;100.00
58843;BME280;44614;54.356;10.100;2023-04-08T01:34:52;102289.50;;;4.92;100.00
58843;BME280;44614;54.356;10.100;2023-04-08T01:37:19;102292.22;;;4.92;100.00
58843;BME280;44614;54.356;10.100;2023-04-08T01:39:46;102292.41;;;4.90;100.00
58843;BME280;44614;54.356;10.100;2023-04-08T01:42:13;102291.38;;;4.91;100.00
58843;BME280;44614;54.356;10.100;2023-04-08T01:44:39;102295.81;;;4.92;100.00
58843;BME280;44614;54.356;10.100;2023-04-08T01:47:06;102288.53;;;4.93;100.00
58843;BME280;44614;54.356;10.100;2023-04-08T01:49:32;102265.09;;;4.72;100.00
58843;BME280;44614;54.356;10.100;2023-04-08T01:51:59;102286.22;;;4.88;100.00
58843;BME280;44614;54.356;10.100;2023-04-08T01:54:25;102303.28;;;4.90;100.00
58843;BME280;44614;54.356;10.100;2023-04-08T01:56:53;102272.41;;;4.72;100.00
58843;BME280;44614;54.356;10.100;2023-04-08T01:59:22;102286.22;;;4.88;100.00
58843;BME280;44614;54.356;10.100;2023-04-08T02:01:49;102297.00;;;4.89;100.00
58843;BME280;44614;54.356;10.100;2023-04-08T02:04:15;102294.41;;;4.88;100.00
58843;BME280;44614;54.356;10.100;2023-04-08T02:06:41;102292.69;;;4.87;100.00
58843;BME280;44614;54.356;10.100;2023-04-08T02:09:06;102297.28;;;4.86;100.00
58843;BME280;44614;54.356;10.100;2023-04-08T02:11:32;102299.16;;;4.86;100.00
58843;BME280;44614;54.356;10.100;2023-04-08T02:13:57;102291.28;;;4.83;100.00
58843;BME280;44614;54.356;10.100;2023-04-08T02:16:29;102302.16;;;4.83;100.00
58843;BME280;44614;54.356;10.100;2023-04-08T02:19:04;102292.84;;;4.85;100.00
58843;BME280;44614;54.356;10.100;2023-04-08T02:21:45;102291.84;;;4.86;100.00
58843;BME280;44614;54.356;10.100;2023-04-08T02:24:12;102290.81;;;4.87;100.00
58843;BME280;44614;54.356;10.100;2023-04-08T02:26:39;102279.16;;;4.77;100.00
58843;BME280;44614;54.356;10.100;2023-04-08T02:29:11;102287.41;;;4.85;100.00
58843;BME280;44614;54.356;10.100;2023-04-08T02:31:40;102290.44;;;4.82;100.00
58843;BME280;44614;54.356;10.100;2023-04-08T02:34:07;102291.56;;;4.80;100.00
58843;BME280;44614;54.356;10.100;2023-04-08T02:36:33;102299.19;;;4.76;100.00
58843;BME280;44614;54.356;10.100;2023-04-08T02:38:59;102287.03;;;4.71;100.00
58843;BME280;44614;54.356;10.100;2023-04-08T02:41:27;102299.06;;;4.78;100.00
58843;BME280;44614;54.356;10.100;2023-04-08T02:43:53;102296.47;;;4.76;100.00
58843;BME280;44614;54.356;10.100;2023-04-08T02:46:19;102273.47;;;4.61;100.00
58843;BME280;44614;54.356;10.100;2023-04-08T02:48:45;102297.63;;;4.74;100.00
58843;BME280;44614;54.356;10.100;2023-04-08T02:51:10;102294.91;;;4.74;100.00
58843;BME280;44614;54.356;10.100;2023-04-08T02:53:36;102293.91;;;4.75;100.00
58843;BME280;44614;54.356;10.100;2023-04-08T02:56:01;102283.19;;;4.73;100.00
58843;BME280;44614;54.356;10.100;2023-04-08T02:58:26;102299.34;;;4.75;100.00
58843;BME280;44614;54.356;10.100;2023-04-08T03:00:52;102303.06;;;4.74;100.00
58843;BME280;44614;54.356;10.100;2023-04-08T03:03:17;102298.50;;;4.74;100.00
58843;BME280;44614;54.356;10.100;2023-04-08T03:05:42;102295.78;;;4.74;100.00
58843;BME280;44614;54.356;10.100;2023-04-08T03:08:08;102295.59;;;4.76;100.00
58843;BME280;44614;54.356;10.100;2023-04-08T03:10:33;102308.19;;;4.77;100.00
58843;BME280;44614;54.356;10.100;2023-04-08T03:12:58;102301.91;;;4.76;100.00
58843;BME280;44614;54.356;10.100;2023-04-08T03:15:23;102312.94;;;4.75;100.00
58843;BME280;44614;54.356;10.100;2023-04-08T03:17:49;102285.66;;;4.57;100.00
58843;BME280;44614;54.356;10.100;2023-04-08T03:20:14;102303.06;;;4.74;100.00
58843;BME280;44614;54.356;10.100;2023-04-08T03:22:40;102300.34;;;4.74;100.00
58843;BME280;44614;54.356;10.100;2023-04-08T03:25:05;102307.34;;;4.76;100.00
58843;BME280;44614;54.356;10.100;2023-04-08T03:27:31;102265.34;;;4.51;100.00
58843;BME280;44614;54.356;10.100;2023-04-08T03:29:56;102315.38;;;4.78;100.00
58843;BME280;44614;54.356;10.100;2023-04-08T03:32:22;102310.22;;;4.75;100.00
58843;BME280;44614;54.356;10.100;2023-04-08T03:34:47;102314.25;;;4.71;100.00
58843;BME280;44614;54.356;10.100;2023-04-08T03:37:15;102283.28;;;4.44;100.00
58843;BME280;44614;54.356;10.100;2023-04-08T03:39:41;102314.28;;;4.61;100.00
58843;BME280;44614;54.356;10.100;2023-04-08T03:42:06;102316.59;;;4.56;100.00
58843;BME280;44614;54.356;10.100;2023-04-08T03:44:31;102317.44;;;4.56;100.00
58843;BME280;44614;54.356;10.100;2023-04-08T03:46:57;102317.91;;;4.52;100.00
58843;BME280;44614;54.356;10.100;2023-04-08T03:49:22;102349.97;;;4.48;100.00
58843;BME280;44614;54.356;10.100;2023-04-08T03:51:49;102326.91;;;4.43;100.00
58843;BME280;44614;54.356;10.100;2023-04-08T03:54:14;102317.50;;;4.37;100.00
58843;BME280;44614;54.356;10.100;2023-04-08T03:56:40;102323.22;;;4.34;100.00
58843;BME280;44614;54.356;10.100;2023-04-08T03:59:05;102320.66;;;4.32;100.00
58843;BME280;44614;54.356;10.100;2023-04-08T04:01:31;102320.50;;;4.34;100.00
58843;BME280;44614;54.356;10.100;2023-04-08T04:03:56;102329.38;;;4.36;100.00
58843;BME280;44614;54.356;10.100;2023-04-08T04:06:22;102334.97;;;4.34;100.00
58843;BME280;44614;54.356;10.100;2023-04-08T04:08:47;102336.13;;;4.32;100.00
58843;BME280;44614;54.356;10.100;2023-04-08T04:11:14;102332.56;;;4.31;100.00
58843;BME280;44614;54.356;10.100;2023-04-08T04:13:39;102334.38;;;4.31;100.00
58843;BME280;44614;54.356;10.100;2023-04-08T04:16:05;102291.06;;;4.00;100.00
58843;BME280;44614;54.356;10.100;2023-04-08T04:18:30;102335.56;;;4.28;100.00
58843;BME280;44614;54.356;10.100;2023-04-08T04:20:55;102338.41;;;4.27;100.00
58843;BME280;44614;54.356;10.100;2023-04-08T04:23:21;102345.88;;;4.25;100.00
58843;BME280;44614;54.356;10.100;2023-04-08T04:25:48;102345.13;;;4.23;100.00
58843;BME280;44614;54.356;10.100;2023-04-08T04:28:13;102346.44;;;4.19;100.00
58843;BME280;44614;54.356;10.100;2023-04-08T04:30:39;102349.03;;;4.20;100.00
58843;BME280;44614;54.356;10.100;2023-04-08T04:33:05;102356.31;;;4.20;100.00
58843;BME280;44614;54.356;10.100;2023-04-08T04:35:30;102351.59;;;4.22;100.00
58843;BME280;44614;54.356;10.100;2023-04-08T04:37:56;102345.13;;;4.23;100.00
58843;BME280;44614;54.356;10.100;2023-04-08T04:40:21;102349.72;;;4.22;100.00
58843;BME280;44614;54.356;10.100;2023-04-08T04:42:47;102350.72;;;4.21;100.00
58843;BME280;44614;54.356;10.100;2023-04-08T04:45:12;102356.19;;;4.21;100.00
58843;BME280;44614;54.356;10.100;2023-04-08T04:47:38;102361.63;;;4.21;100.00
58843;BME280;44614;54.356;10.100;2023-04-08T04:50:04;102356.31;;;4.20;100.00
58843;BME280;44614;54.356;10.100;2023-04-08T04:52:30;102344.16;;;4.14;100.00
58843;BME280;44614;54.356;10.100;2023-04-08T04:54:56;102364.63;;;4.18;100.00
58843;BME280;44614;54.356;10.100;2023-04-08T04:57:22;102379.06;;;4.19;100.00
58843;BME280;44614;54.356;10.100;2023-04-08T04:59:47;102376.94;;;4.12;100.00
58843;BME280;44614;54.356;10.100;2023-04-08T05:02:12;102379.38;;;4.06;100.00
58843;BME280;44614;54.356;10.100;2023-04-08T05:04:38;102378.22;;;4.08;100.00
58843;BME280;44614;54.356;10.100;2023-04-08T05:07:03;102346.47;;;3.89;100.00
58843;BME280;44614;54.356;10.100;2023-04-08T05:09:29;102390.94;;;4.08;100.00
58843;BME280;44614;54.356;10.100;2023-04-08T05:11:55;102401.22;;;4.04;100.00
58843;BME280;44614;54.356;10.100;2023-04-08T05:14:20;102387.22;;;3.99;100.00
58843;BME280;44614;54.356;10.100;2023-04-08T05:16:45;102391.66;;;4.00;100.00
58843;BME280;44614;54.356;10.100;2023-04-08T05:19:11;102399.81;;;4.00;100.00
58843;BME280;44614;54.356;10.100;2023-04-08T05:21:36;102402.69;;;3.99;100.00
58843;BME280;44614;54.356;10.100;2023-04-08T05:24:01;102386.53;;;3.97;100.00
58843;BME280;44614;54.356;10.100;2023-04-08T05:26:26;102388.34;;;3.97;100.00
58843;BME280;44614;54.356;10.100;2023-04-08T05:28:52;102393.25;;;3.93;100.00
58843;BME280;44614;54.356;10.100;2023-04-08T05:31:18;102402.09;;;3.95;100.00
58843;BME280;44614;54.356;10.100;2023-04-08T05:33:43;102396.22;;;4.00;100.00
58843;BME280;44614;54.356;10.100;2023-04-08T05:36:10;102367.06;;;3.82;100.00
58843;BME280;44614;54.356;10.100;2023-04-08T05:38:35;102404.66;;;3.97;100.00
58843;BME280;44614;54.356;10.100;2023-04-08T05:41:01;102405.25;;;3.90;100.00
58843;BME280;44614;54.356;10.100;2023-04-08T05:43:26;102403.66;;;3.88;100.00
58843;BME280;44614;54.356;10.100;2023-04-08T05:45:51;102406.25;;;3.89;100.00
58843;BME280;44614;54.356;10.100;2023-04-08T05:48:17;102408.81;;;3.91;100.00
58843;BME280;44614;54.356;10.100;2023-04-08T05:50:42;102405.25;;;3.90;100.00
58843;BME280;44614;54.356;10.100;2023-04-08T05:53:08;102404.81;;;3.95;100.00
58843;BME280;44614;54.356;10.100;2023-04-08T05:55:34;102354.72;;;3.69;100.00
58843;BME280;44614;54.356;10.100;2023-04-08T05:57:59;102411.41;;;4.02;100.00
58843;BME280;44614;54.356;10.100;2023-04-08T06:00:25;102414.41;;;3.99;100.00
58843;BME280;44614;54.356;10.100;2023-04-08T06:02:51;102409.25;;;3.96;100.00
58843;BME280;44614;54.356;10.100;2023-04-08T06:05:16;102411.69;;;3.99;100.00
58843;BME280;44614;54.356;10.100;2023-04-08T06:07:43;102412.25;;;4.03;100.00
58843;BME280;44614;54.356;10.100;2023-04-08T06:10:09;102417.25;;;4.07;100.00
58843;BME280;44614;54.356;10.100;2023-04-08T06:12:35;102412.56;;;4.09;100.00
58843;BME280;44614;54.356;10.100;2023-04-08T06:15:03;102414.44;;;4.09;100.00
58843;BME280;44614;54.356;10.100;2023-04-08T06:17:28;102413.56;;;4.08;100.00
58843;BME280;44614;54.356;10.100;2023-04-08T06:19:54;102410.97;;;4.07;100.00
58843;BME280;44614;54.356;10.100;2023-04-08T06:22:19;102416.00;;;4.02;100.00
58843;BME280;44614;54.356;10.100;2023-04-08T06:24:46;102415.41;;;3.98;100.00
58843;BME280;44614;54.356;10.100;2023-04-08T06:27:11;102416.56;;;4.05;100.00
58843;BME280;44614;54.356;10.100;2023-04-08T06:29:37;102416.56;;;4.05;100.00
58843;BME280;44614;54.356;10.100;2023-04-08T06:32:02;102430.88;;;4.07;100.00
58843;BME280;44614;54.356;10.100;2023-04-08T06:34:27;102431.88;;;4.06;100.00
58843;BME280;44614;54.356;10.100;2023-04-08T06:36:53;102438.44;;;4.04;100.00
58843;BME280;44614;54.356;10.100;2023-04-08T06:39:18;102439.16;;;3.96;100.00
58843;BME280;44614;54.356;10.100;2023-04-08T06:41:45;102438.16;;;3.97;100.00
58843;BME280;44614;54.356;10.100;2023-04-08T06:44:10;102451.75;;;3.97;100.00
58843;BME280;44614;54.356;10.100;2023-04-08T06:46:35;102452.59;;;3.88;100.00
58843;BME280;44614;54.356;10.100;2023-04-08T06:49:01;102462.06;;;3.94;100.00
58843;BME280;44614;54.356;10.100;2023-04-08T06:51:28;102461.75;;;3.97;100.00
58843;BME280;44614;54.356;10.100;2023-04-08T06:53:53;102437.25;;;3.77;100.00
58843;BME280;44614;54.356;10.100;2023-04-08T06:56:19;102460.63;;;3.99;100.00
58843;BME280;44614;54.356;10.100;2023-04-08T06:58:46;102467.06;;;4.08;100.00
58843;BME280;44614;54.356;10.100;2023-04-08T07:01:11;102466.09;;;4.09;100.00
58843;BME280;44614;54.356;10.100;2023-04-08T07:03:37;102466.66;;;4.12;100.00
58843;BME280;44614;54.356;10.100;2023-04-08T07:06:02;102461.50;;;4.09;100.00
58843;BME280;44614;54.356;10.100;2023-04-08T07:08:28;102466.66;;;4.12;100.00
58843;BME280;44614;54.356;10.100;2023-04-08T07:10:53;102470.09;;;4.14;100.00
58843;BME280;44614;54.356;10.100;2023-04-08T07:13:19;102475.94;;;4.20;100.00
58843;BME280;44614;54.356;10.100;2023-04-08T07:15:44;102472.09;;;4.12;100.00
58843;BME280;44614;54.356;10.100;2023-04-08T07:18:09;102472.94;;;4.23;100.00
58843;BME280;44614;54.356;10.100;2023-04-08T07:20:36;102447.75;;;4.11;100.00
58843;BME280;44614;54.356;10.100;2023-04-08T07:23:02;102473.09;;;4.31;100.00
58843;BME280;44614;54.356;10.100;2023-04-08T07:25:27;102481.72;;;4.36;100.00
58843;BME280;44614;54.356;10.100;2023-04-08T07:27:53;102480.41;;;4.40;100.00
58843;BME280;44614;54.356;10.100;2023-04-08T07:30:18;102454.22;;;4.29;100.00
58843;BME280;44614;54.356;10.100;2023-04-08T07:32:44;102490.72;;;4.56;100.00
58843;BME280;44614;54.356;10.100;2023-04-08T07:35:09;102487.13;;;4.65;100.00
58843;BME280;44614;54.356;10.100;2023-04-08T07:37:34;102495.00;;;4.68;100.00
58843;BME280;44614;54.356;10.100;2023-04-08T07:40:00;102485.72;;;4.71;100.00
58843;BME280;44614;54.356;10.100;2023-04-08T07:42:26;102481.84;;;4.63;100.00
58843;BME280;44614;54.356;10.100;2023-04-08T07:44:51;102476.13;;;4.67;100.00
58843;BME280;44614;54.356;10.100;2023-04-08T07:47:16;102491.28;;;4.79;100.00
58843;BME280;44614;54.356;10.100;2023-04-08T07:49:42;102496.44;;;4.82;100.00
58843;BME280;44614;54.356;10.100;2023-04-08T07:52:10;102495.84;;;4.88;100.00
58843;BME280;44614;54.356;10.100;2023-04-08T07:54:35;102496.41;;;4.92;100.00
58843;BME280;44614;54.356;10.100;2023-04-08T07:57:00;102501.28;;;4.98;100.00
58843;BME280;44614;54.356;10.100;2023-04-08T07:59:27;102500.41;;;5.07;100.00
58843;BME280;44614;54.356;10.100;2023-04-08T08:01:53;102516.72;;;5.07;100.00
58843;BME280;44614;54.356;10.100;2023-04-08T08:04:18;102513.88;;;5.08;100.00
58843;BME280;44614;54.356;10.100;2023-04-08T08:06:43;102517.03;;;5.13;100.00
58843;BME280;44614;54.356;10.100;2023-04-08T08:09:09;102511.91;;;5.01;100.00
58843;BME280;44614;54.356;10.100;2023-04-08T08:11:35;102503.28;;;4.96;100.00
58843;BME280;44614;54.356;10.100;2023-04-08T08:14:00;102515.03;;;5.06;100.00
58843;BME280;44614;54.356;10.100;2023-04-08T08:16:30;102510.56;;;5.14;100.00
58843;BME280;44614;54.356;10.100;2023-04-08T08:18:59;102509.56;;;5.16;100.00
58843;BME280;44614;54.356;10.100;2023-04-08T08:21:24;102489.25;;;5.00;100.00
58843;BME280;44614;54.356;10.100;2023-04-08T08:23:53;102515.03;;;5.16;100.00
58843;BME280;44614;54.356;10.100;2023-04-08T08:26:19;102491.38;;;5.16;100.00
58843;BME280;44614;54.356;10.100;2023-04-08T08:28:45;102520.13;;;5.38;100.00
58843;BME280;44614;54.356;10.100;2023-04-08T08:31:10;102528.72;;;5.33;100.00
58843;BME280;44614;54.356;10.100;2023-04-08T08:33:36;102528.75;;;5.24;100.00
58843;BME280;44614;54.356;10.100;2023-04-08T08:36:01;102520.13;;;5.28;100.00
58843;BME280;44614;54.356;10.100;2023-04-08T08:38:29;102530.88;;;5.30;100.00
58843;BME280;44614;54.356;10.100;2023-04-08T08:40:55;102496.53;;;5.09;100.00
58843;BME280;44614;54.356;10.100;2023-04-08T08:43:22;102530.75;;;5.31;100.00
58843;BME280;44614;54.356;10.100;2023-04-08T08:45:47;102526.09;;;5.42;100.00
58843;BME280;44614;54.356;10.100;2023-04-08T08:48:12;102523.53;;;5.50;100.00
58843;BME280;44614;54.356;10.100;2023-04-08T08:50:38;102535.28;;;5.50;100.00
58843;BME280;44614;54.356;10.100;2023-04-08T08:53:04;102525.34;;;5.59;100.00
58843;BME280;44614;54.356;10.100;2023-04-08T08:55:31;102513.81;;;5.75;100.00
58843;BME280;44614;54.356;10.100;2023-04-08T08:57:58;102522.69;;;5.77;100.00
58843;BME280;44614;54.356;10.100;2023-04-08T09:00:31;102523.69;;;5.76;100.00
58843;BME280;44614;54.356;10.100;2023-04-08T09:03:14;102525.78;;;5.92;100.00
58843;BME280;44614;54.356;10.100;2023-04-08T09:05:50;102518.72;;;5.99;100.00
58843;BME280;44614;54.356;10.100;2023-04-08T09:08:26;102497.44;;;5.75;100.00
58843;BME280;44614;54.356;10.100;2023-04-08T09:10:53;102524.50;;;5.96;100.00
58843;BME280;44614;54.356;10.100;2023-04-08T09:13:18;102529.75;;;6.07;100.00
58843;BME280;44614;54.356;10.100;2023-04-08T09:16:03;102539.28;;;6.21;100.00
58843;BME280;44614;54.356;10.100;2023-04-08T09:18:30;102533.22;;;6.27;100.00
58843;BME280;44614;54.356;10.100;2023-04-08T09:20:55;102530.63;;;6.25;100.00
58843;BME280;44614;54.356;10.100;2023-04-08T09:23:21;102536.84;;;6.18;100.00
58843;BME280;44614;54.356;10.100;2023-04-08T09:25:46;102539.56;;;6.18;100.00
58843;BME280;44614;54.356;10.100;2023-04-08T09:28:19;102553.97;;;6.10;100.00
58843;BME280;44614;54.356;10.100;2023-04-08T09:30:45;102551.13;;;6.12;100.00
58843;BME280;44614;54.356;10.100;2023-04-08T09:33:12;102559.78;;;6.25;100.00
58843;BME280;44614;54.356;10.100;2023-04-08T09:35:37;102550.59;;;6.26;100.00
58843;BME280;44614;54.356;10.100;2023-04-08T09:38:02;102558.78;;;6.26;100.00
58843;BME280;44614;54.356;10.100;2023-04-08T09:40:31;102560.41;;;6.19;99.96
58843;BME280;44614;54.356;10.100;2023-04-08T09:43:00;102561.72;;;6.15;100.00
58843;BME280;44614;54.356;10.100;2023-04-08T09:45:29;102569.66;;;6.08;100.00
58843;BME280;44614;54.356;10.100;2023-04-08T09:48:06;102495.19;;;5.60;100.00
58843;BME280;44614;54.356;10.100;2023-04-08T09:50:41;102563.03;;;6.10;100.00
58843;BME280;44614;54.356;10.100;2023-04-08T09:53:18;102561.66;;;6.24;100.00
58843;BME280;44614;54.356;10.100;2023-04-08T09:55:49;102571.16;;;6.20;99.55
58843;BME280;44614;54.356;10.100;2023-04-08T09:58:18;102567.25;;;5.95;100.00
58843;BME280;44614;54.356;10.100;2023-04-08T10:00:46;102579.78;;;5.78;100.00
58843;BME280;44614;54.356;10.100;2023-04-08T10:03:28;102576.91;;;5.80;100.00
58843;BME280;44614;54.356;10.100;2023-04-08T10:05:55;102580.47;;;5.90;100.00
58843;BME280;44614;54.356;10.100;2023-04-08T10:08:22;102585.47;;;6.04;100.00
58843;BME280;44614;54.356;10.100;2023-04-08T10:10:49;102573.94;;;6.10;100.00
58843;BME280;44614;54.356;10.100;2023-04-08T10:13:14;102549.91;;;5.96;100.00
58843;BME280;44614;54.356;10.100;2023-04-08T10:15:40;102581.91;;;6.22;100.00
58843;BME280;44614;54.356;10.100;2023-04-08T10:25:40;102586.38;;;6.23;99.76
58843;BME280;44614;54.356;10.100;2023-04-08T10:30:55;102578.53;;;6.10;100.00
58843;BME280;44614;54.356;10.100;2023-04-08T10:33:33;102579.59;;;6.27;100.00
58843;BME280;44614;54.356;10.100;2023-04-08T10:36:07;102575.47;;;6.41;100.00
58843;BME280;44614;54.356;10.100;2023-04-08T10:38:39;102581.94;;;6.40;99.70
58843;BME280;44614;54.356;10.100;2023-04-08T10:41:09;102555.09;;;6.17;100.00
58843;BME280;44614;54.356;10.100;2023-04-08T10:43:36;102574.56;;;6.50;100.00
58843;BME280;44614;54.356;10.100;2023-04-08T10:46:02;102578.72;;;6.54;98.92
58843;BME280;44614;54.356;10.100;2023-04-08T10:48:27;102584.00;;;6.38;99.38
58843;BME280;44614;54.356;10.100;2023-04-08T10:53:29;102569.53;;;6.27;100.00
58843;BME280;44614;54.356;10.100;2023-04-08T10:56:15;102571.97;;;6.30;100.00
58843;BME280;44614;54.356;10.100;2023-04-08T10:58:50;102550.91;;;6.41;100.00
58843;BME280;44614;54.356;10.100;2023-04-08T11:01:15;102555.16;;;6.53;99.62
58843;BME280;44614;54.356;10.100;2023-04-08T11:03:42;102553.66;;;6.58;99.99
58843;BME280;44614;54.356;10.100;2023-04-08T11:06:08;102564.28;;;6.62;98.98
58843;BME280;44614;54.356;10.100;2023-04-08T11:08:34;102572.31;;;6.45;99.71
58843;BME280;44614;54.356;10.100;2023-04-08T11:11:01;102556.94;;;6.44;100.00
58843;BME280;44614;54.356;10.100;2023-04-08T11:13:28;102571.59;;;6.79;100.00
58843;BME280;44614;54.356;10.100;2023-04-08T11:15:58;102567.59;;;7.09;99.61
58843;BME280;44614;54.356;10.100;2023-04-08T11:18:24;102564.84;;;7.27;97.54
58843;BME280;44614;54.356;10.100;2023-04-08T11:20:51;102566.75;;;7.08;95.54
58843;BME280;44614;54.356;10.100;2023-04-08T11:23:17;102563.00;;;7.09;97.67
58843;BME280;44614;54.356;10.100;2023-04-08T11:25:43;102539.00;;;6.95;96.13
58843;BME280;44614;54.356;10.100;2023-04-08T11:28:10;102572.69;;;6.86;96.99
58843;BME280;44614;54.356;10.100;2023-04-08T11:30:37;102453.94;;;6.10;98.46
58843;BME280;44614;54.356;10.100;2023-04-08T11:33:03;102569.19;;;6.94;99.55
58843;BME280;44614;54.356;10.100;2023-04-08T11:35:29;102564.03;;;7.08;99.04
58843;BME280;44614;54.356;10.100;2023-04-08T11:37:55;102543.50;;;7.04;97.35
58843;BME280;44614;54.356;10.100;2023-04-08T11:40:20;102575.50;;;6.94;97.78
58843;BME280;44614;54.356;10.100;2023-04-08T11:42:46;102577.94;;;6.97;99.74
58843;BME280;44614;54.356;10.100;2023-04-08T11:45:13;102578.72;;;7.07;97.65
58843;BME280;44614;54.356;10.100;2023-04-08T11:47:40;102580.66;;;6.97;97.82
58843;BME280;44614;54.356;10.100;2023-04-08T11:50:06;102576.84;;;7.08;99.29
58843;BME280;44614;54.356;10.100;2023-04-08T11:52:48;102575.00;;;7.35;97.08
58843;BME280;44614;54.356;10.100;2023-04-08T11:55:27;102575.72;;;7.19;96.47
58843;BME280;44614;54.356;10.100;2023-04-08T11:57:53;102579.38;;;7.27;98.42
58843;BME280;44614;54.356;10.100;2023-04-08T12:00:21;102577.94;;;7.41;96.63
58843;BME280;44614;54.356;10.100;2023-04-08T12:02:47;102557.44;;;7.37;95.61
58843;BME280;44614;54.356;10.100;2023-04-08T12:05:16;102575.31;;;7.57;95.99
58843;BME280;44614;54.356;10.100;2023-04-08T12:07:42;102571.56;;;7.93;96.72
58843;BME280;44614;54.356;10.100;2023-04-08T12:10:11;102573.06;;;8.13;93.26
58843;BME280;44614;54.356;10.100;2023-04-08T12:12:37;102579.75;;;8.27;92.99
58843;BME280;44614;54.356;10.100;2023-04-08T12:15:03;102552.91;;;8.30;90.60
58843;BME280;44614;54.356;10.100;2023-04-08T12:17:28;102580.72;;;8.44;91.75
58843;BME280;44614;54.356;10.100;2023-04-08T12:19:53;102573.59;;;8.75;92.45
58843;BME280;44614;54.356;10.100;2023-04-08T12:22:19;102584.56;;;8.92;90.64
58843;BME280;44614;54.356;10.100;2023-04-08T12:24:44;102566.41;;;8.99;90.46
58843;BME280;44614;54.356;10.100;2023-04-08T12:27:10;102586.13;;;8.86;88.32
58843;BME280;44614;54.356;10.100;2023-04-08T12:29:35;102585.94;;;8.96;89.41
58843;BME280;44614;54.356;10.100;2023-04-08T12:32:00;102583.72;;;8.99;88.98
58843;BME280;44614;54.356;10.100;2023-04-08T12:34:26;102579.59;;;9.12;88.23
58843;BME280;44614;54.356;10.100;2023-04-08T12:36:52;102578.59;;;9.29;89.99
58843;BME280;44614;54.356;10.100;2023-04-08T12:39:19;102575.66;;;9.31;87.56
58843;BME280;44614;54.356;10.100;2023-04-08T12:41:45;102576.31;;;9.73;89.39
58843;BME280;44614;54.356;10.100;2023-04-08T12:44:10;102574.28;;;10.07;87.44
58843;BME280;44614;54.356;10.100;2023-04-08T12:46:35;102574.41;;;10.21;85.07
58843;BME280;44614;54.356;10.100;2023-04-08T12:49:00;102571.28;;;9.85;83.35
58843;BME280;44614;54.356;10.100;2023-04-08T12:51:26;102570.88;;;9.41;86.56
58843;BME280;44614;54.356;10.100;2023-04-08T12:53:51;102579.59;;;9.52;88.77
58843;BME280;44614;54.356;10.100;2023-04-08T12:56:16;102572.16;;;9.86;87.12